Time;durP1;ratioP1;P1;durP2;ratioP2;P2;SDS_P1;SDS_P2;PMS_P1;PMS_P2;Temp;Humidity;BMP_temperature;BMP_pressure;BME280_temperature;BME280_humidity;BME280_pressure;Samples;Min_cycle;Max_cycle;Signal;HPM_P1;HPM_P2
2023/03/11 00:00:35;;;;;;;2.90;2.28;;;0.80;99.90;;;;;;4917205;29;20063;-86
2023/03/11 00:03:03;;;;;;;3.15;2.28;;;0.80;99.90;;;;;;4932761;29;20512;-85
2023/03/11 00:05:32;;;;;;;3.42;2.40;;;0.80;99.90;;;;;;4891354;29;20171;-86
2023/03/11 00:07:59;;;;;;;3.47;2.35;;;0.80;99.90;;;;;;4921949;29;20080;-86
2023/03/11 00:10:28;;;;;;;3.03;2.25;;;0.70;99.90;;;;;;4893043;29;20559;-85
2023/03/11 00:12:56;;;;;;;3.30;2.17;;;0.70;99.90;;;;;;4900961;29;20056;-86
2023/03/11 00:15:23;;;;;;;4.78;2.63;;;0.60;99.90;;;;;;4893435;29;20428;-86
2023/03/11 00:17:50;;;;;;;3.60;2.13;;;0.60;99.90;;;;;;4925886;29;20079;-86
2023/03/11 00:20:23;;;;;;;3.97;2.20;;;0.60;99.90;;;;;;4895290;29;20075;-85
2023/03/11 00:22:51;;;;;;;3.95;2.80;;;0.60;99.90;;;;;;4909211;29;20059;-86
2023/03/11 00:25:17;;;;;;;3.17;2.10;;;0.60;99.90;;;;;;4896124;29;20048;-86
2023/03/11 00:27:44;;;;;;;3.53;2.15;;;0.50;99.90;;;;;;4897654;29;20057;-86
2023/03/11 00:30:12;;;;;;;3.97;2.58;;;0.50;99.90;;;;;;4911910;29;20067;-86
2023/03/11 00:32:39;;;;;;;3.25;2.28;;;0.50;99.90;;;;;;4899651;29;20059;-85
2023/03/11 00:35:06;;;;;;;3.58;2.08;;;0.50;99.90;;;;;;4894868;29;20759;-86
2023/03/11 00:37:34;;;;;;;3.15;2.20;;;0.40;99.90;;;;;;4912043;29;20048;-86
2023/03/11 00:40:00;;;;;;;4.90;2.83;;;0.50;99.90;;;;;;4910838;29;20121;-86
2023/03/11 00:42:28;;;;;;;4.20;2.50;;;0.40;99.90;;;;;;4896612;29;20110;-86
2023/03/11 00:44:55;;;;;;;4.07;2.78;;;0.50;99.90;;;;;;4912204;29;20044;-86
2023/03/11 00:47:22;;;;;;;4.10;2.47;;;0.50;99.90;;;;;;4896601;29;20147;-86
2023/03/11 00:49:49;;;;;;;3.72;2.00;;;0.40;99.90;;;;;;4913119;29;20962;-86
2023/03/11 00:52:17;;;;;;;3.65;2.33;;;0.40;99.90;;;;;;4912188;29;20062;-86
2023/03/11 00:54:45;;;;;;;3.33;1.95;;;0.40;99.90;;;;;;4911152;29;20324;-87
2023/03/11 00:57:11;;;;;;;3.80;2.17;;;0.40;99.90;;;;;;4918809;29;20139;-86
2023/03/11 00:59:38;;;;;;;3.33;1.95;;;0.40;99.90;;;;;;4903306;29;20059;-86
2023/03/11 01:02:05;;;;;;;4.00;2.42;;;0.30;99.90;;;;;;4896264;29;20047;-85
2023/03/11 01:04:32;;;;;;;5.13;2.53;;;0.30;99.90;;;;;;4896102;29;20043;-86
2023/03/11 01:06:59;;;;;;;3.47;1.90;;;0.30;99.90;;;;;;4896060;29;20051;-86
2023/03/11 01:09:26;;;;;;;3.97;2.08;;;0.30;99.90;;;;;;4915753;29;20127;-86
2023/03/11 01:11:53;;;;;;;3.13;2.10;;;0.30;99.90;;;;;;4919587;29;20055;-86
2023/03/11 01:14:20;;;;;;;2.50;2.03;;;0.20;99.90;;;;;;4897876;29;20479;-85
2023/03/11 01:16:47;;;;;;;3.22;2.03;;;0.30;99.90;;;;;;4900913;29;20453;-86
2023/03/11 01:19:14;;;;;;;3.97;2.38;;;0.20;99.90;;;;;;4893837;29;20083;-86
2023/03/11 01:21:41;;;;;;;4.30;2.00;;;0.20;99.90;;;;;;4917623;29;20075;-86
2023/03/11 01:24:08;;;;;;;3.33;2.38;;;0.20;99.90;;;;;;4891840;29;20048;-86
2023/03/11 01:26:35;;;;;;;3.55;2.13;;;0.20;99.90;;;;;;4910729;29;20115;-86
2023/03/11 01:29:02;;;;;;;4.25;2.10;;;0.20;99.90;;;;;;4895156;29;20154;-85
2023/03/11 01:31:29;;;;;;;3.10;1.75;;;0.10;99.90;;;;;;4894853;29;20055;-86
2023/03/11 01:33:56;;;;;;;2.83;1.98;;;0.10;99.90;;;;;;4890185;29;20056;-86
2023/03/11 01:36:23;;;;;;;3.63;1.95;;;0.00;99.90;;;;;;4910172;29;20376;-86
2023/03/11 01:38:50;;;;;;;3.08;1.80;;;0.00;99.90;;;;;;4910942;29;20424;-86
2023/03/11 01:41:17;;;;;;;2.58;1.38;;;0.00;99.90;;;;;;4913525;29;20055;-87
2023/03/11 01:43:44;;;;;;;4.20;2.00;;;0.00;99.90;;;;;;4895985;29;20051;-87
2023/03/11 01:46:15;;;;;;;4.07;1.80;;;0.00;99.90;;;;;;4927084;29;20048;-86
2023/03/11 01:48:45;;;;;;;2.78;1.85;;;0.00;99.90;;;;;;4911707;29;20066;-86
2023/03/11 01:51:12;;;;;;;2.85;1.98;;;-0.10;99.90;;;;;;4897434;29;20055;-86
2023/03/11 01:53:39;;;;;;;2.63;1.67;;;-0.10;99.90;;;;;;4899412;29;20139;-86
2023/03/11 01:56:06;;;;;;;3.03;2.33;;;-0.10;99.90;;;;;;4903757;29;20538;-86
2023/03/11 01:58:35;;;;;;;2.97;2.10;;;-0.10;99.90;;;;;;4909704;29;20059;-85
2023/03/11 02:01:03;;;;;;;2.92;1.95;;;-0.20;99.90;;;;;;4911098;29;20468;-86
2023/03/11 02:03:31;;;;;;;3.08;1.90;;;-0.10;99.90;;;;;;4897215;29;20076;-86
2023/03/11 02:06:00;;;;;;;3.00;1.73;;;-0.10;99.90;;;;;;4917648;29;20058;-86
2023/03/11 02:08:28;;;;;;;2.47;1.63;;;-0.10;99.90;;;;;;4910599;29;20056;-87
2023/03/11 02:10:55;;;;;;;2.28;1.63;;;-0.10;99.90;;;;;;4905904;29;20111;-87
2023/03/11 02:13:22;;;;;;;2.65;1.60;;;-0.20;99.90;;;;;;4908303;29;20090;-87
2023/03/11 02:15:49;;;;;;;2.83;1.60;;;-0.20;99.90;;;;;;4894581;29;20078;-87
2023/03/11 02:18:20;;;;;;;2.65;1.67;;;-0.20;99.90;;;;;;4902726;29;20058;-86
2023/03/11 02:21:18;;;;;;;2.38;1.70;;;-0.20;99.90;;;;;;4901111;29;20059;-85
2023/03/11 02:23:51;;;;;;;2.88;1.85;;;-0.30;99.90;;;;;;4909910;29;20078;-86
2023/03/11 02:26:49;;;;;;;3.50;1.75;;;-0.30;99.90;;;;;;4912202;29;20545;-86
2023/03/11 02:29:16;;;;;;;3.97;1.85;;;-0.30;99.90;;;;;;4892747;29;20503;-87
2023/03/11 02:31:43;;;;;;;2.03;1.65;;;-0.30;99.90;;;;;;4911343;29;20650;-87
2023/03/11 02:34:22;;;;;;;3.10;1.68;;;-0.30;99.90;;;;;;4219406;29;9999951;-88
2023/03/11 02:36:48;;;;;;;1.85;1.55;;;-0.40;99.90;;;;;;4911434;29;20057;-87
2023/03/11 02:39:16;;;;;;;2.78;1.42;;;-0.40;99.90;;;;;;4902653;29;20151;-86
2023/03/11 02:41:46;;;;;;;2.95;1.92;;;-0.40;99.90;;;;;;4899004;29;20138;-86
2023/03/11 02:44:13;;;;;;;2.58;1.70;;;-0.40;99.90;;;;;;4903226;29;20041;-87
2023/03/11 02:46:40;;;;;;;3.28;1.90;;;-0.50;99.90;;;;;;4900575;29;20052;-86
2023/03/11 02:49:07;;;;;;;2.38;1.77;;;-0.50;99.90;;;;;;4898894;29;20080;-86
2023/03/11 02:51:34;;;;;;;2.78;2.03;;;-0.50;99.90;;;;;;4916508;29;20088;-87
2023/03/11 02:54:03;;;;;;;3.33;1.58;;;-0.50;99.90;;;;;;4902330;29;20052;-87
2023/03/11 02:56:29;;;;;;;3.65;1.83;;;-0.50;99.90;;;;;;4912300;29;20503;-87
2023/03/11 02:58:56;;;;;;;2.40;1.40;;;-0.50;99.90;;;;;;4897132;29;20484;-86
2023/03/11 03:01:23;;;;;;;2.80;1.70;;;-0.40;99.90;;;;;;4903340;29;20139;-87
2023/03/11 03:03:50;;;;;;;3.10;1.90;;;-0.40;99.90;;;;;;4903203;29;20044;-87
2023/03/11 03:06:17;;;;;;;3.33;1.75;;;-0.40;99.90;;;;;;4922192;29;20051;-87
2023/03/11 03:08:44;;;;;;;2.53;1.80;;;-0.50;99.90;;;;;;4909584;29;20078;-87
2023/03/11 03:11:11;;;;;;;2.70;1.50;;;-0.50;99.90;;;;;;4922787;29;20044;-87
2023/03/11 03:13:38;;;;;;;4.10;1.80;;;-0.50;99.90;;;;;;4901494;29;20058;-87
2023/03/11 03:16:05;;;;;;;2.70;1.88;;;-0.50;99.90;;;;;;4903245;29;20083;-88
2023/03/11 03:18:32;;;;;;;2.65;1.60;;;-0.60;99.90;;;;;;4906026;29;20051;-87
2023/03/11 03:20:59;;;;;;;3.15;1.80;;;-0.70;99.90;;;;;;4904493;29;20048;-88
2023/03/11 03:23:26;;;;;;;2.50;1.67;;;-0.80;99.90;;;;;;4924126;29;20146;-89
2023/03/11 03:25:53;;;;;;;2.78;1.60;;;-0.70;99.90;;;;;;4925823;29;20516;-89
2023/03/11 03:28:19;;;;;;;2.92;1.77;;;-0.60;99.90;;;;;;4902683;29;20070;-89
2023/03/11 03:30:46;;;;;;;2.55;1.52;;;-0.60;99.90;;;;;;4927935;29;20254;-88
2023/03/11 03:33:13;;;;;;;2.33;1.65;;;-0.60;99.90;;;;;;4923254;29;20083;-88
2023/03/11 03:35:42;;;;;;;2.67;1.75;;;-0.60;99.90;;;;;;4896262;29;20112;-88
2023/03/11 03:38:09;;;;;;;3.97;1.65;;;-0.60;99.90;;;;;;4906229;29;20062;-88
2023/03/11 03:40:36;;;;;;;2.45;1.65;;;-0.60;99.90;;;;;;4904849;29;20119;-88
2023/03/11 03:43:03;;;;;;;3.08;1.70;;;-0.70;99.90;;;;;;4903462;29;20047;-89
2023/03/11 03:45:30;;;;;;;2.35;1.55;;;-0.70;99.90;;;;;;4901652;29;20851;-88
2023/03/11 03:47:57;;;;;;;2.08;1.52;;;-0.70;99.90;;;;;;4914845;29;20139;-89
2023/03/11 03:50:23;;;;;;;2.50;1.55;;;-0.70;99.90;;;;;;4909447;29;20063;-88
2023/03/11 03:52:51;;;;;;;2.00;1.40;;;-0.70;99.90;;;;;;4901786;29;20118;-88
2023/03/11 03:55:17;;;;;;;1.75;1.13;;;-0.80;99.90;;;;;;4905574;29;20087;-90
2023/03/11 03:57:44;;;;;;;3.47;1.70;;;-0.80;99.90;;;;;;4905746;29;20052;-89
2023/03/11 04:00:12;;;;;;;3.47;1.88;;;-0.80;99.90;;;;;;4924244;29;20586;-88
2023/03/11 04:02:39;;;;;;;1.90;1.30;;;-0.90;99.90;;;;;;4908287;29;20138;-89
2023/03/11 04:05:07;;;;;;;2.53;1.73;;;-0.90;99.90;;;;;;4909698;29;20330;-88
2023/03/11 04:07:34;;;;;;;3.42;2.10;;;-0.90;99.90;;;;;;4923344;29;20082;-88
2023/03/11 04:10:02;;;;;;;2.28;1.58;;;-0.80;99.90;;;;;;4904164;29;20060;-89
2023/03/11 04:12:29;;;;;;;2.13;1.27;;;-0.90;99.90;;;;;;4907528;29;20079;-87
2023/03/11 04:14:56;;;;;;;2.50;1.58;;;-0.80;99.90;;;;;;4908748;29;20055;-89
2023/03/11 04:17:23;;;;;;;2.72;1.73;;;-0.80;99.90;;;;;;4905816;29;20052;-90
2023/03/11 04:19:50;;;;;;;1.88;1.20;;;-0.90;99.90;;;;;;4902505;29;20052;-88
2023/03/11 04:22:17;;;;;;;2.00;1.33;;;-0.90;99.90;;;;;;4922305;29;20216;-88
2023/03/11 04:24:44;;;;;;;3.30;1.75;;;-0.90;99.90;;;;;;4914101;29;20143;-88
2023/03/11 04:27:11;;;;;;;3.90;1.55;;;-0.90;99.90;;;;;;4906913;29;20117;-88
2023/03/11 04:29:38;;;;;;;2.45;1.40;;;-0.90;99.90;;;;;;4916359;29;20063;-88
2023/03/11 04:32:05;;;;;;;2.75;1.75;;;-0.80;99.90;;;;;;4910535;29;20043;-88
2023/03/11 04:34:32;;;;;;;2.03;1.45;;;-0.80;99.90;;;;;;4920948;29;20482;-86
2023/03/11 04:36:59;;;;;;;2.83;1.55;;;-0.80;99.90;;;;;;4915477;29;20052;-88
2023/03/11 04:39:26;;;;;;;2.10;1.40;;;-0.80;99.90;;;;;;4911594;29;20051;-88
2023/03/11 04:41:53;;;;;;;1.95;1.13;;;-0.70;99.90;;;;;;4910621;29;20051;-88
2023/03/11 04:44:20;;;;;;;2.85;2.00;;;-0.80;99.90;;;;;;4926872;29;20055;-88
2023/03/11 04:46:47;;;;;;;1.92;1.60;;;-0.80;99.90;;;;;;4908101;29;20056;-87
2023/03/11 04:49:14;;;;;;;2.67;1.60;;;-0.70;99.90;;;;;;4921795;29;20062;-88
2023/03/11 04:51:40;;;;;;;1.50;1.25;;;-0.60;99.90;;;;;;4920893;29;20094;-88
2023/03/11 04:54:07;;;;;;;2.03;1.55;;;-0.50;99.90;;;;;;4902551;29;20555;-88
2023/03/11 04:56:34;;;;;;;2.08;1.77;;;-0.50;99.90;;;;;;4909588;29;20063;-87
2023/03/11 04:59:01;;;;;;;2.83;1.40;;;-0.40;99.90;;;;;;4909706;29;20086;-89
2023/03/11 05:01:28;;;;;;;3.10;1.77;;;-0.40;99.90;;;;;;4904914;29;20071;-90
2023/03/11 05:03:55;;;;;;;1.73;1.30;;;-0.30;99.90;;;;;;4906478;29;20047;-89
2023/03/11 05:06:22;;;;;;;2.80;1.60;;;-0.30;99.90;;;;;;4907802;29;20142;-89
2023/03/11 05:08:49;;;;;;;1.58;1.20;;;-0.30;99.90;;;;;;4929704;29;20058;-89
2023/03/11 05:11:16;;;;;;;2.75;1.60;;;-0.20;99.90;;;;;;4903298;29;20158;-88
2023/03/11 05:13:43;;;;;;;3.20;1.30;;;-0.20;99.90;;;;;;4903698;29;20051;-88
2023/03/11 05:16:10;;;;;;;1.73;1.30;;;-0.10;99.90;;;;;;4922046;29;20060;-88
2023/03/11 05:18:37;;;;;;;2.22;1.60;;;-0.10;99.90;;;;;;4902642;29;20052;-88
2023/03/11 05:21:04;;;;;;;2.42;1.48;;;-0.10;99.90;;;;;;4926567;29;20068;-88
2023/03/11 05:23:30;;;;;;;3.35;1.40;;;-0.10;99.90;;;;;;4907566;29;20051;-87
2023/03/11 05:25:57;;;;;;;2.63;1.70;;;-0.10;99.90;;;;;;4913221;29;20184;-88
2023/03/11 05:28:24;;;;;;;2.35;1.50;;;-0.10;99.90;;;;;;4929743;29;20576;-88
2023/03/11 05:30:52;;;;;;;1.95;1.27;;;0.00;99.90;;;;;;4921211;29;20251;-88
2023/03/11 05:33:18;;;;;;;2.10;1.25;;;0.00;99.90;;;;;;4921552;29;20043;-88
2023/03/11 05:35:45;;;;;;;2.40;1.23;;;0.00;99.90;;;;;;4910027;29;20107;-88
2023/03/11 05:38:13;;;;;;;1.83;1.20;;;0.00;99.90;;;;;;4908188;29;20135;-88
2023/03/11 05:40:40;;;;;;;2.45;1.88;;;0.00;99.90;;;;;;4925217;29;20073;-88
2023/03/11 05:43:06;;;;;;;1.60;1.10;;;0.10;99.90;;;;;;4914853;29;20532;-88
2023/03/11 05:45:33;;;;;;;1.60;1.20;;;0.10;99.90;;;;;;4918112;29;20048;-90
2023/03/11 05:48:03;;;;;;;2.42;1.50;;;0.10;99.90;;;;;;4900850;29;20080;-92
2023/03/11 05:50:30;;;;;;;1.45;1.13;;;0.10;99.90;;;;;;4898913;29;20131;-88
2023/03/11 05:52:57;;;;;;;1.48;1.02;;;0.10;99.90;;;;;;4899159;29;20060;-87
2023/03/11 05:55:24;;;;;;;1.75;1.10;;;0.20;99.90;;;;;;4902389;29;20071;-87
2023/03/11 05:57:51;;;;;;;2.30;1.13;;;0.10;99.90;;;;;;4911173;29;20160;-86
2023/03/11 06:00:19;;;;;;;2.22;1.20;;;0.20;99.90;;;;;;4923170;29;20059;-90
2023/03/11 06:02:46;;;;;;;2.10;1.40;;;0.20;99.90;;;;;;4900455;29;20107;-87
2023/03/11 06:05:13;;;;;;;2.65;1.58;;;0.20;99.90;;;;;;4897492;29;20091;-88
2023/03/11 06:07:40;;;;;;;1.83;1.38;;;0.20;99.90;;;;;;4898260;29;20055;-87
2023/03/11 06:10:07;;;;;;;1.27;1.08;;;0.20;99.90;;;;;;4914678;29;20055;-89
2023/03/11 06:12:34;;;;;;;1.83;1.10;;;0.20;99.90;;;;;;4896732;29;20056;-88
2023/03/11 06:15:01;;;;;;;1.67;1.20;;;0.20;99.90;;;;;;4905003;29;20911;-88
2023/03/11 06:17:28;;;;;;;2.15;1.58;;;0.20;99.90;;;;;;4913132;29;20174;-88
2023/03/11 06:19:56;;;;;;;2.60;1.10;;;0.30;99.90;;;;;;4909487;29;20066;-87
2023/03/11 06:22:23;;;;;;;1.17;0.98;;;0.30;99.90;;;;;;4893929;29;20352;-88
2023/03/11 06:24:50;;;;;;;1.90;1.08;;;0.40;99.90;;;;;;4901640;29;20232;-87
2023/03/11 06:27:17;;;;;;;2.10;1.45;;;0.40;99.90;;;;;;4902062;29;20123;-87
2023/03/11 06:29:45;;;;;;;2.70;1.55;;;0.40;99.90;;;;;;4902544;29;20079;-88
2023/03/11 06:32:14;;;;;;;1.90;1.20;;;0.40;99.90;;;;;;4920487;29;20065;-88
2023/03/11 06:34:42;;;;;;;2.15;1.27;;;0.40;99.90;;;;;;4907276;29;20047;-88
2023/03/11 06:37:09;;;;;;;2.15;1.48;;;0.40;99.90;;;;;;4895224;29;20078;-87
2023/03/11 06:39:36;;;;;;;2.28;1.17;;;0.40;99.90;;;;;;4902108;29;20052;-89
2023/03/11 06:42:03;;;;;;;1.75;0.98;;;0.40;99.90;;;;;;4898315;29;20142;-89
2023/03/11 06:44:31;;;;;;;1.60;1.10;;;0.40;99.90;;;;;;4902267;29;20138;-88
2023/03/11 06:46:58;;;;;;;1.42;1.00;;;0.50;99.90;;;;;;4903622;29;20495;-89
2023/03/11 06:49:25;;;;;;;1.50;0.90;;;0.50;99.90;;;;;;4905342;29;20118;-90
2023/03/11 06:51:52;;;;;;;2.45;1.20;;;0.50;99.90;;;;;;4911740;29;20126;-90
2023/03/11 06:54:19;;;;;;;1.77;1.20;;;0.50;99.90;;;;;;4928672;29;20052;-89
2023/03/11 06:56:46;;;;;;;1.80;1.10;;;0.50;99.90;;;;;;4913033;29;20079;-90
2023/03/11 06:59:14;;;;;;;1.42;1.02;;;0.50;99.90;;;;;;4895279;29;20052;-88
2023/03/11 07:01:41;;;;;;;2.40;1.33;;;0.50;99.90;;;;;;4901412;29;20123;-89
2023/03/11 07:04:09;;;;;;;1.35;0.88;;;0.50;99.90;;;;;;4899670;29;20102;-90
2023/03/11 07:06:36;;;;;;;1.70;1.15;;;0.60;99.90;;;;;;4894449;29;20439;-89
2023/03/11 07:09:02;;;;;;;1.98;1.10;;;0.60;99.90;;;;;;4897417;29;20373;-88
2023/03/11 07:11:30;;;;;;;2.03;0.95;;;0.70;99.90;;;;;;4897354;29;20134;-87
2023/03/11 07:13:57;;;;;;;1.88;1.20;;;0.70;99.90;;;;;;4897794;29;20063;-87
2023/03/11 07:16:25;;;;;;;1.70;0.90;;;0.80;99.90;;;;;;4896749;29;20055;-89
2023/03/11 07:18:54;;;;;;;1.77;0.80;;;0.80;99.90;;;;;;4896977;29;20088;-87
2023/03/11 07:21:22;;;;;;;1.52;1.00;;;0.90;99.90;;;;;;4905322;29;20094;-87
2023/03/11 07:23:53;;;;;;;1.27;0.85;;;0.90;99.90;;;;;;4907708;29;20154;-89
2023/03/11 07:26:20;;;;;;;0.80;0.75;;;1.00;99.90;;;;;;4922376;29;20138;-89
2023/03/11 07:28:48;;;;;;;1.55;1.00;;;1.10;99.90;;;;;;4894544;29;20055;-88
2023/03/11 07:31:16;;;;;;;0.93;0.60;;;1.10;99.90;;;;;;4912078;29;20067;-88
2023/03/11 07:33:44;;;;;;;1.67;0.95;;;1.10;99.90;;;;;;4900512;29;20083;-88
2023/03/11 07:36:16;;;;;;;2.88;1.02;;;1.20;99.90;;;;;;4896553;29;20119;-89
2023/03/11 07:38:43;;;;;;;1.10;0.80;;;1.20;99.90;;;;;;4895293;29;20099;-88
2023/03/11 07:41:10;;;;;;;0.90;0.70;;;1.30;99.90;;;;;;4896218;29;20143;-88
2023/03/11 07:43:38;;;;;;;1.17;0.70;;;1.40;99.90;;;;;;4896698;29;20217;-87
2023/03/11 07:46:09;;;;;;;1.42;0.90;;;1.40;99.90;;;;;;4892066;29;20052;-88
2023/03/11 07:48:37;;;;;;;0.90;0.70;;;1.50;99.90;;;;;;4895905;29;20047;-87
2023/03/11 07:51:13;;;;;;;0.50;0.50;;;1.50;99.90;;;;;;4896197;29;20055;-87
2023/03/11 07:53:40;;;;;;;1.55;0.80;;;1.60;99.90;;;;;;4895513;29;20047;-88
2023/03/11 07:56:08;;;;;;;1.30;0.80;;;1.60;99.90;;;;;;4897043;29;20337;-88
2023/03/11 07:58:35;;;;;;;1.50;0.73;;;1.70;99.90;;;;;;4894887;29;20626;-88
2023/03/11 08:01:06;;;;;;;0.98;0.70;;;1.80;99.90;;;;;;4911319;29;20076;-88
2023/03/11 08:03:34;;;;;;;1.48;0.80;;;1.90;99.90;;;;;;4903449;29;20678;-87
2023/03/11 08:06:01;;;;;;;0.82;0.57;;;2.00;99.90;;;;;;4884858;29;20138;-87
2023/03/11 08:08:28;;;;;;;1.23;1.02;;;2.00;99.90;;;;;;4909363;29;20051;-89
2023/03/11 08:10:55;;;;;;;1.13;0.75;;;2.10;99.90;;;;;;4914025;29;20166;-87
2023/03/11 08:13:21;;;;;;;0.80;0.75;;;2.20;99.90;;;;;;4905072;29;20067;-87
2023/03/11 08:15:48;;;;;;;0.90;0.70;;;2.30;99.90;;;;;;4894956;29;20114;-87
2023/03/11 08:18:15;;;;;;;1.17;0.80;;;2.40;99.90;;;;;;4894520;29;20137;-86
2023/03/11 08:20:44;;;;;;;0.70;0.55;;;2.50;99.90;;;;;;4893400;29;20087;-87
2023/03/11 08:23:11;;;;;;;0.95;0.80;;;2.60;99.90;;;;;;4892435;29;20052;-87
2023/03/11 08:25:39;;;;;;;1.50;0.80;;;2.80;99.90;;;;;;4893464;29;20719;-87
2023/03/11 08:28:06;;;;;;;0.68;0.60;;;2.90;99.90;;;;;;4895218;29;20566;-86
2023/03/11 08:30:33;;;;;;;0.43;0.43;;;3.00;99.90;;;;;;4896272;29;20079;-86
2023/03/11 08:33:00;;;;;;;1.05;0.60;;;3.10;99.90;;;;;;4898588;29;20050;-85
2023/03/11 08:35:29;;;;;;;0.88;0.57;;;3.10;99.90;;;;;;4910459;29;20635;-83
2023/03/11 08:37:56;;;;;;;0.90;0.73;;;3.20;99.90;;;;;;4909268;29;20433;-85
2023/03/11 08:40:23;;;;;;;0.90;0.60;;;3.20;99.90;;;;;;4909169;29;20492;-85
2023/03/11 08:42:50;;;;;;;2.03;0.90;;;3.30;99.90;;;;;;4921595;29;20473;-85
2023/03/11 08:45:17;;;;;;;1.83;1.25;;;3.30;99.90;;;;;;4912084;29;20078;-86
2023/03/11 08:47:44;;;;;;;1.27;0.80;;;3.30;99.90;;;;;;4917930;29;20059;-86
2023/03/11 08:50:16;;;;;;;1.90;0.93;;;3.20;99.90;;;;;;4909534;29;20123;-85
2023/03/11 08:52:42;;;;;;;1.35;0.60;;;3.30;99.90;;;;;;4900089;29;20087;-86
2023/03/11 08:55:17;;;;;;;1.00;0.70;;;3.30;99.90;;;;;;4907322;29;20043;-78
2023/03/11 08:57:44;;;;;;;1.38;0.60;;;3.30;99.90;;;;;;4917464;29;20063;-84
2023/03/11 09:00:11;;;;;;;0.90;0.70;;;3.30;99.90;;;;;;4917135;29;20137;-83
2023/03/11 09:02:40;;;;;;;1.02;0.55;;;3.30;99.90;;;;;;4909483;29;20063;-81
2023/03/11 09:05:08;;;;;;;1.00;0.50;;;3.40;99.90;;;;;;4924472;29;20051;-83
2023/03/11 09:07:35;;;;;;;0.98;0.75;;;3.50;99.90;;;;;;4913959;29;20795;-82
2023/03/11 09:10:02;;;;;;;1.25;0.65;;;3.60;99.90;;;;;;4912245;29;20044;-83
2023/03/11 09:12:29;;;;;;;1.40;0.55;;;3.70;99.90;;;;;;4902233;29;20159;-83
2023/03/11 09:14:56;;;;;;;1.00;0.50;;;3.80;99.90;;;;;;4893512;29;20056;-84
2023/03/11 09:17:23;;;;;;;0.70;0.70;;;3.90;99.90;;;;;;4902998;29;20424;-84
2023/03/11 09:19:50;;;;;;;0.77;0.57;;;4.20;99.90;;;;;;4898570;29;20078;-84
2023/03/11 09:22:17;;;;;;;1.58;1.02;;;4.40;99.90;;;;;;4892596;29;20056;-82
2023/03/11 09:24:44;;;;;;;0.73;0.63;;;4.50;99.90;;;;;;4894990;29;20043;-85
2023/03/11 09:27:11;;;;;;;0.63;0.50;;;4.60;99.90;;;;;;4892858;29;20515;-83
2023/03/11 09:29:38;;;;;;;0.50;0.50;;;4.80;99.90;;;;;;4897615;29;20182;-83
2023/03/11 09:32:06;;;;;;;0.40;0.40;;;5.00;99.90;;;;;;4910597;29;20130;-83
2023/03/11 09:34:33;;;;;;;0.57;0.40;;;5.20;99.90;;;;;;4898152;29;20051;-82
2023/03/11 09:37:00;;;;;;;1.00;0.75;;;5.40;99.90;;;;;;4894290;29;20526;-83
2023/03/11 09:39:27;;;;;;;2.15;0.70;;;5.50;99.90;;;;;;4891920;29;20131;-81
2023/03/11 09:41:56;;;;;;;0.63;0.50;;;5.60;99.90;;;;;;4874610;29;20139;-83
2023/03/11 09:44:47;;;;;;;0.50;0.45;;;5.80;99.90;;;;;;4890797;29;20146;-84
2023/03/11 09:47:28;;;;;;;0.57;0.30;;;5.90;99.90;;;;;;4891054;29;20058;-84
2023/03/11 09:50:17;;;;;;;1.70;0.63;;;6.00;99.90;;;;;;4905625;29;21009;-84
2023/03/11 09:53:16;;;;;;;2.08;0.77;;;6.10;99.90;;;;;;4908579;29;20629;-84
2023/03/11 09:56:00;;;;;;;0.63;0.30;;;6.30;99.90;;;;;;4934720;29;20055;-83
2023/03/11 09:58:50;;;;;;;0.77;0.43;;;6.40;99.90;;;;;;4916511;29;20139;-84
2023/03/11 10:01:26;;;;;;;0.93;0.35;;;6.50;99.90;;;;;;4885489;29;20458;-83
2023/03/11 10:04:21;;;;;;;0.38;0.35;;;6.70;99.90;;;;;;4894034;29;20055;-84
2023/03/11 10:06:48;;;;;;;1.30;0.65;;;6.80;99.90;;;;;;4903363;29;20060;-83
2023/03/11 10:09:24;;;;;;;1.38;0.32;;;6.70;99.90;;;;;;4892482;29;20056;-84
2023/03/11 10:12:12;;;;;;;0.32;0.28;;;6.80;99.90;;;;;;4925846;29;20091;-84
2023/03/11 10:15:04;;;;;;;0.95;0.40;;;6.80;99.90;;;;;;4888378;29;20767;-83
2023/03/11 10:18:00;;;;;;;0.93;0.50;;;6.70;99.90;;;;;;4907866;29;20055;-84
2023/03/11 10:20:37;;;;;;;0.47;0.38;;;6.90;99.90;;;;;;4915940;29;20119;-83
2023/03/11 10:23:28;;;;;;;0.68;0.50;;;7.00;99.90;;;;;;4917748;29;20058;-83
2023/03/11 10:26:14;;;;;;;0.57;0.32;;;7.00;99.90;;;;;;4922157;29;20806;-83
2023/03/11 10:28:43;;;;;;;0.65;0.50;;;7.30;99.90;;;;;;4921341;29;20058;-84
2023/03/11 10:31:37;;;;;;;0.57;0.47;;;7.40;99.90;;;;;;4922507;29;20694;-83
2023/03/11 10:34:22;;;;;;;;;;;7.50;99.90;;;;;;4909124;29;20090;-83
2023/03/11 10:36:51;;;;;;;0.82;0.60;;;7.50;99.90;;;;;;4903775;29;19954;-84
2023/03/11 10:39:18;;;;;;;3.22;0.88;;;7.50;99.90;;;;;;4920755;29;20066;-83
2023/03/11 10:41:51;;;;;;;1.15;0.70;;;7.50;99.90;;;;;;4905353;29;20166;-83
2023/03/11 10:44:38;;;;;;;1.40;0.73;;;7.50;99.90;;;;;;4898560;29;20071;-84
2023/03/11 10:47:05;;;;;;;1.08;0.70;;;7.50;99.90;;;;;;4906515;29;20580;-83
2023/03/11 10:49:32;;;;;;;2.70;0.68;;;7.60;99.90;;;;;;4896770;29;20711;-83
2023/03/11 10:51:59;;;;;;;0.77;0.57;;;7.60;99.90;;;;;;4887525;29;20071;-84
2023/03/11 10:54:34;;;;;;;1.58;0.60;;;7.70;99.90;;;;;;4904846;29;20571;-84
2023/03/11 10:57:02;;;;;;;0.82;0.50;;;7.70;99.90;;;;;;4913522;29;20154;-84
2023/03/11 10:59:49;;;;;;;1.15;0.73;;;7.70;99.90;;;;;;4909629;29;20059;-84
2023/03/11 11:02:32;;;;;;;4.05;0.90;;;7.90;99.90;;;;;;4905619;29;20051;-85
2023/03/11 11:05:02;;;;;;;;;;;8.00;99.90;;;;;;4897394;29;20142;-84
2023/03/11 11:07:38;;;;;;;0.93;0.60;;;8.00;99.90;;;;;;4924079;29;20162;-85
2023/03/11 11:10:11;;;;;;;0.40;0.40;;;8.00;99.90;;;;;;4900407;29;20461;-84
2023/03/11 11:12:55;;;;;;;0.82;0.55;;;8.00;99.90;;;;;;4933836;29;20103;-84
2023/03/11 11:15:32;;;;;;;1.35;0.68;;;8.10;99.90;;;;;;4914413;29;20131;-91
2023/03/11 11:18:04;;;;;;;1.15;0.90;;;8.30;99.90;;;;;;4915258;29;20062;-88
2023/03/11 11:20:32;;;;;;;3.13;1.10;;;8.40;99.90;;;;;;4894046;29;20147;-85
2023/03/11 11:23:00;;;;;;;1.00;0.80;;;8.40;99.90;;;;;;4904405;29;20666;-87
2023/03/11 11:25:37;;;;;;;2.15;0.80;;;8.50;99.90;;;;;;4897174;29;20760;-85
2023/03/11 11:28:18;;;;;;;1.17;0.75;;;8.50;99.90;;;;;;4901942;29;20149;-87
2023/03/11 11:31:23;;;;;;;1.48;0.80;;;8.60;99.90;;;;;;4891312;29;20063;-84
2023/03/11 11:33:54;;;;;;;1.10;0.65;;;8.80;99.90;;;;;;4900605;29;20166;-85
2023/03/11 11:36:24;;;;;;;1.33;0.57;;;8.90;99.90;;;;;;4881265;29;20056;-85
2023/03/11 11:38:53;;;;;;;1.48;0.85;;;9.00;99.90;;;;;;4901958;29;20179;-86
2023/03/11 11:41:22;;;;;;;0.60;0.52;;;9.10;99.90;;;;;;4892430;29;20636;-86
2023/03/11 11:43:52;;;;;;;1.08;0.70;;;9.40;99.90;;;;;;4897288;29;20079;-85
2023/03/11 11:46:42;;;;;;;1.10;0.80;;;9.70;99.90;;;;;;4916242;29;20066;-86
2023/03/11 11:49:30;;;;;;;0.88;0.70;;;10.10;99.90;;;;;;4913807;29;20078;-86
2023/03/11 11:52:05;;;;;;;1.80;0.88;;;10.30;99.90;;;;;;4916145;29;20048;-86
2023/03/11 11:54:37;;;;;;;1.50;0.70;;;10.40;99.90;;;;;;4916662;29;20047;-85
2023/03/11 11:57:10;;;;;;;1.90;0.90;;;10.50;99.90;;;;;;4930598;29;20708;-83
2023/03/11 11:59:37;;;;;;;1.20;0.75;;;10.70;99.40;;;;;;4897703;29;20110;-85
2023/03/11 12:02:25;;;;;;;1.40;0.90;;;11.00;99.60;;;;;;4891159;29;20518;-85
2023/03/11 12:05:09;;;;;;;1.13;0.70;;;11.20;99.60;;;;;;4917042;29;20578;-84
2023/03/11 12:08:04;;;;;;;1.70;0.93;;;11.40;98.30;;;;;;4931541;29;20606;-84
2023/03/11 12:10:51;;;;;;;2.35;1.02;;;11.60;98.50;;;;;;4917823;29;20055;-85
2023/03/11 12:14:02;;;;;;;1.40;0.88;;;11.70;98.00;;;;;;4894215;29;20054;-85
2023/03/11 12:16:53;;;;;;;2.28;1.02;;;12.00;97.40;;;;;;4910467;29;20056;-85
2023/03/11 12:19:45;;;;;;;1.08;0.70;;;12.00;96.10;;;;;;4915175;29;20547;-85
2023/03/11 12:22:26;;;;;;;0.75;0.60;;;12.10;96.70;;;;;;4920246;29;20059;-84
2023/03/11 12:25:11;;;;;;;1.20;0.68;;;12.00;96.80;;;;;;4892257;29;20048;-83
2023/03/11 12:27:45;;;;;;;0.80;0.60;;;12.40;95.60;;;;;;4921872;29;20052;-85
2023/03/11 12:30:21;;;;;;;0.77;0.60;;;12.70;94.60;;;;;;4903963;29;20183;-85
2023/03/11 12:32:50;;;;;;;0.82;0.52;;;12.70;94.60;;;;;;4882725;29;20083;-85
2023/03/11 12:35:29;;;;;;;1.13;0.60;;;12.60;93.60;;;;;;4881995;29;20496;-85
2023/03/11 12:37:57;;;;;;;0.93;0.50;;;12.30;93.30;;;;;;4891854;29;20495;-87
2023/03/11 12:40:43;;;;;;;0.45;0.45;;;12.10;94.10;;;;;;4894881;29;20056;-86
2023/03/11 12:43:29;;;;;;;0.93;0.45;;;12.40;94.90;;;;;;4919500;29;20191;-86
2023/03/11 12:45:59;;;;;;;0.65;0.45;;;12.50;95.40;;;;;;4922872;29;20043;-83
2023/03/11 12:48:26;;;;;;;0.65;0.45;;;12.70;94.10;;;;;;4886584;29;20126;-88
2023/03/11 12:50:53;;;;;;;0.80;0.40;;;13.00;95.20;;;;;;4566061;29;9999996;-88
2023/03/11 12:53:20;;;;;;;2.63;0.73;;;13.30;94.60;;;;;;4881480;29;20142;-87
2023/03/11 12:56:08;;;;;;;1.80;0.80;;;13.50;94.00;;;;;;4885601;29;20062;-87
2023/03/11 12:58:49;;;;;;;2.00;1.40;;;13.50;93.00;;;;;;4880314;29;20419;-84
2023/03/11 13:01:36;;;;;;;1.52;0.90;;;13.70;92.30;;;;;;4898959;29;20199;-86
2023/03/11 13:04:12;;;;;;;1.98;1.10;;;14.10;90.40;;;;;;4899471;29;20564;-87
2023/03/11 13:06:54;;;;;;;1.05;0.75;;;14.40;90.20;;;;;;4904315;29;20091;-87
2023/03/11 13:09:24;;;;;;;1.00;0.70;;;14.50;90.70;;;;;;4885120;29;20056;-86